createdAt,value
2023-04-19T00:00:42.386Z,85.04
2023-04-19T00:01:42.378Z,85.75
2023-04-19T00:02:42.844Z,85.04
2023-04-19T00:03:42.358Z,86.06
2023-04-19T00:04:42.351Z,85.35
2023-04-19T00:05:42.161Z,84.94
2023-04-19T00:06:42.129Z,85.55
2023-04-19T00:07:42.098Z,85.96
2023-04-19T00:08:42.048Z,85.86
2023-04-19T00:09:41.999Z,85.92
2023-04-19T00:10:41.961Z,85.86
2023-04-19T00:11:41.946Z,85.96
2023-04-19T00:12:41.882Z,86.06
2023-04-19T00:13:41.879Z,86.26
2023-04-19T00:14:42.152Z,85.65
2023-04-19T00:15:41.758Z,85.96
2023-04-19T00:16:41.781Z,86.26
2023-04-19T00:17:41.701Z,86.67
2023-04-19T00:18:41.643Z,86.67
2023-04-19T00:19:41.612Z,86.26
2023-04-19T00:20:41.570Z,86.30
2023-04-19T00:21:41.516Z,86.98
2023-04-19T00:22:41.482Z,86.26
2023-04-19T00:23:41.438Z,86.57
2023-04-19T00:24:41.398Z,86.77
2023-04-19T00:25:41.357Z,86.16
2023-04-19T00:26:41.334Z,86.36
2023-04-19T00:27:41.276Z,86.26
2023-04-19T00:28:41.268Z,85.75
2023-04-19T00:29:41.195Z,86.57
2023-04-19T00:30:41.163Z,86.88
2023-04-19T00:31:41.148Z,86.57
2023-04-19T00:32:41.138Z,85.96
2023-04-19T00:33:41.036Z,86.36
2023-04-19T00:34:41.008Z,86.47
2023-04-19T00:35:40.959Z,86.47
2023-04-19T00:36:40.927Z,87.29
2023-04-19T00:37:40.890Z,86.98
2023-04-19T00:38:40.835Z,86.98
2023-04-19T00:39:40.797Z,86.88
2023-04-19T00:40:40.757Z,87.08
2023-04-19T00:41:40.714Z,87.08
2023-04-19T00:42:40.709Z,87.32
2023-04-19T00:43:40.641Z,87.08
2023-04-19T00:44:40.605Z,87.38
2023-04-19T00:45:40.569Z,87.49
2023-04-19T00:46:40.617Z,87.49
2023-04-19T00:47:40.565Z,87.38
2023-04-19T00:48:40.435Z,87.49
2023-04-19T00:49:40.406Z,87.49
2023-04-19T00:50:40.355Z,87.59
2023-04-19T00:51:40.309Z,87.63
2023-04-19T00:52:40.289Z,87.73
2023-04-19T00:53:40.229Z,88.14
2023-04-19T00:54:40.199Z,88.00
2023-04-19T00:55:40.163Z,87.18
2023-04-19T00:56:40.126Z,87.90
2023-04-19T00:57:40.067Z,88.35
2023-04-19T00:58:40.047Z,87.90
2023-04-19T00:59:39.992Z,88.41
2023-04-19T01:00:39.951Z,88.41
2023-04-19T01:01:39.957Z,88.20
2023-04-19T01:02:40.109Z,88.04
2023-04-19T01:03:40.143Z,88.00
2023-04-19T01:04:39.826Z,87.70
2023-04-19T01:05:39.749Z,88.85
2023-04-19T01:06:39.719Z,88.82
2023-04-19T01:07:39.779Z,88.82
2023-04-19T01:08:39.632Z,88.55
2023-04-19T01:09:39.590Z,89.06
2023-04-19T01:10:39.552Z,89.37
2023-04-19T01:11:40.751Z,88.76
2023-04-19T01:12:39.481Z,89.32
2023-04-19T01:13:39.425Z,89.43
2023-04-19T01:14:39.400Z,89.06
2023-04-19T01:15:39.402Z,89.06
2023-04-19T01:16:39.389Z,89.12
2023-04-19T01:17:39.336Z,88.96
2023-04-19T01:18:39.236Z,89.12
2023-04-19T01:19:39.185Z,88.96
2023-04-19T01:20:39.383Z,89.53
2023-04-19T01:21:39.100Z,89.73
2023-04-19T01:22:39.069Z,89.73
2023-04-19T01:23:39.055Z,90.70
2023-04-19T01:24:38.992Z,90.70
2023-04-19T01:25:38.974Z,89.63
2023-04-19T01:26:38.905Z,89.47
2023-04-19T01:27:38.876Z,89.67
2023-04-19T01:28:38.822Z,89.88
2023-04-19T01:29:38.781Z,89.26
2023-04-19T01:30:38.742Z,90.45
2023-04-19T01:31:38.738Z,89.37
2023-04-19T01:32:38.697Z,90.35
2023-04-19T01:33:38.633Z,90.25
2023-04-19T01:34:38.582Z,90.35
2023-04-19T01:35:38.539Z,90.04
2023-04-19T01:36:38.499Z,89.94
2023-04-19T01:37:38.671Z,89.94
2023-04-19T01:38:38.427Z,90.35
2023-04-19T01:39:38.402Z,90.08
2023-04-19T01:40:38.345Z,90.49
2023-04-19T01:41:38.300Z,90.35
2023-04-19T01:42:38.266Z,90.14
2023-04-19T01:43:38.231Z,90.25
2023-04-19T01:44:38.188Z,90.39
2023-04-19T01:45:38.150Z,90.35
2023-04-19T01:46:38.124Z,90.66
2023-04-19T01:47:38.076Z,90.75
2023-04-19T01:48:38.027Z,91.06
2023-04-19T01:49:37.990Z,90.96
2023-04-19T01:50:37.997Z,90.66
2023-04-19T01:51:37.909Z,90.86
2023-04-19T01:52:37.854Z,90.86
2023-04-19T01:53:37.817Z,90.80
2023-04-19T01:54:37.778Z,90.86
2023-04-19T01:55:37.759Z,91.06
2023-04-19T01:56:37.714Z,91.27
2023-04-19T01:57:37.661Z,91.47
2023-04-19T01:58:37.633Z,91.27
2023-04-19T01:59:37.576Z,91.47
2023-04-19T02:00:37.553Z,91.37
2023-04-19T02:01:37.494Z,92.08
2023-04-19T02:02:37.556Z,92.08
2023-04-19T02:03:37.575Z,91.67
2023-04-19T02:04:37.372Z,91.37
2023-04-19T02:05:37.335Z,91.98
2023-04-19T02:06:37.444Z,92.08
2023-04-19T02:07:37.253Z,91.98
2023-04-19T02:08:37.229Z,92.39
2023-04-19T02:09:37.177Z,91.98
2023-04-19T02:10:37.147Z,92.39
2023-04-19T02:11:37.098Z,91.88
2023-04-19T02:12:37.059Z,92.33
2023-04-19T02:13:37.012Z,92.54
2023-04-19T02:14:36.978Z,93.10
2023-04-19T02:15:36.948Z,93.15
2023-04-19T02:16:36.943Z,93.05
2023-04-19T02:17:36.915Z,93.15
2023-04-19T02:18:36.815Z,93.66
2023-04-19T02:19:36.767Z,93.96
2023-04-19T02:20:36.757Z,93.55
2023-04-19T02:21:36.689Z,93.55
2023-04-19T02:22:36.653Z,94.68
2023-04-19T02:23:36.722Z,94.37
2023-04-19T02:24:36.577Z,93.80
2023-04-19T02:25:36.528Z,94.48
2023-04-19T02:26:36.519Z,94.32
2023-04-19T02:27:36.462Z,94.89
2023-04-19T02:28:36.433Z,95.03
2023-04-19T02:29:36.378Z,94.93
2023-04-19T02:30:36.330Z,95.03
2023-04-19T02:31:36.321Z,94.93
2023-04-19T02:32:36.287Z,94.97
2023-04-19T02:33:36.208Z,94.52
2023-04-19T02:34:36.164Z,94.82
2023-04-19T02:35:36.150Z,94.73
2023-04-19T02:36:36.092Z,94.97
2023-04-19T02:37:36.075Z,94.77
2023-04-19T02:38:36.032Z,94.52
2023-04-19T02:39:35.966Z,94.87
2023-04-19T02:40:35.960Z,94.87
2023-04-19T02:41:35.891Z,95.34
2023-04-19T02:42:35.842Z,94.77
2023-04-19T02:43:35.819Z,94.93
2023-04-19T02:44:35.766Z,94.77
2023-04-19T02:45:35.722Z,94.77
2023-04-19T02:46:35.721Z,94.36
2023-04-19T02:47:35.687Z,95.07
2023-04-19T02:48:35.599Z,94.36
2023-04-19T02:49:35.567Z,94.87
2023-04-19T02:50:35.521Z,95.02
2023-04-19T02:51:35.484Z,95.28
2023-04-19T02:52:35.437Z,95.07
2023-04-19T02:53:35.392Z,94.46
2023-04-19T02:54:35.369Z,95.12
2023-04-19T02:55:35.325Z,94.92
2023-04-19T02:56:35.282Z,94.71
2023-04-19T02:57:35.327Z,95.22
2023-04-19T02:58:35.193Z,95.02
2023-04-19T02:59:35.153Z,95.32
2023-04-19T03:00:35.125Z,95.32
2023-04-19T03:01:35.085Z,95.06
2023-04-19T03:02:35.100Z,94.71
2023-04-19T03:03:35.098Z,95.94
2023-04-19T03:04:34.988Z,95.17
2023-04-19T03:05:35.290Z,95.53
2023-04-19T03:06:34.882Z,96.91
2023-04-19T03:07:34.820Z,95.57
2023-04-19T03:08:34.789Z,95.62
2023-04-19T03:09:34.749Z,95.82
2023-04-19T03:10:34.715Z,96.03
2023-04-19T03:11:35.116Z,96.49
2023-04-19T03:12:34.638Z,96.54
2023-04-19T03:13:34.602Z,96.44
2023-04-19T03:14:34.539Z,97.77
2023-04-19T03:15:34.506Z,96.54
2023-04-19T03:16:34.461Z,96.29
2023-04-19T03:17:34.452Z,96.49
2023-04-19T03:18:34.386Z,95.78
2023-04-19T03:19:34.332Z,96.29
2023-04-19T03:20:34.298Z,97.15
2023-04-19T03:21:34.247Z,95.67
2023-04-19T03:22:34.207Z,95.57
2023-04-19T03:23:34.176Z,95.67
2023-04-19T03:24:37.079Z,95.84
2023-04-19T03:25:34.080Z,96.08
2023-04-19T03:26:34.256Z,95.57
2023-04-19T03:27:34.009Z,95.06
2023-04-19T03:28:33.965Z,95.06
2023-04-19T03:29:33.918Z,95.32
2023-04-19T03:30:33.889Z,95.22
2023-04-19T03:31:33.877Z,95.02
2023-04-19T03:32:33.868Z,95.32
2023-04-19T03:33:33.760Z,95.84
2023-04-19T03:34:33.721Z,95.32
2023-04-19T03:35:33.683Z,94.51
2023-04-19T03:36:33.631Z,95.63
2023-04-19T03:37:33.604Z,93.89
2023-04-19T03:38:33.550Z,94.92
2023-04-19T03:39:33.511Z,94.67
2023-04-19T03:40:33.469Z,94.92
2023-04-19T03:41:33.420Z,94.30
2023-04-19T03:42:33.384Z,94.30
2023-04-19T03:43:33.403Z,94.71
2023-04-19T03:44:33.300Z,93.89
2023-04-19T03:45:33.261Z,93.74
2023-04-19T03:46:33.253Z,93.69
2023-04-19T03:47:33.211Z,93.54
2023-04-19T03:48:33.137Z,93.24
2023-04-19T03:49:33.113Z,93.03
2023-04-19T03:50:33.058Z,92.72
2023-04-19T03:51:33.017Z,93.33
2023-04-19T03:52:32.976Z,92.93
2023-04-19T03:53:32.939Z,93.13
2023-04-19T03:54:32.890Z,92.32
2023-04-19T03:55:32.877Z,92.42
2023-04-19T03:56:32.877Z,92.62
2023-04-19T03:57:32.772Z,92.42
2023-04-19T03:58:32.728Z,91.80
2023-04-19T03:59:32.693Z,92.32
2023-04-19T04:00:32.648Z,92.11
2023-04-19T04:01:33.291Z,92.52
2023-04-19T04:02:32.681Z,91.70
2023-04-19T04:03:32.626Z,92.21
2023-04-19T04:04:32.629Z,92.21
2023-04-19T04:05:32.517Z,92.01
2023-04-19T04:06:32.414Z,91.29
2023-04-19T04:07:32.389Z,91.50
2023-04-19T04:08:32.323Z,91.60
2023-04-19T04:09:32.280Z,91.35
2023-04-19T04:10:32.243Z,91.15
2023-04-19T04:11:32.204Z,90.64
2023-04-19T04:12:32.165Z,90.58
2023-04-19T04:13:32.153Z,90.94
2023-04-19T04:14:32.077Z,90.94
2023-04-19T04:15:32.041Z,90.74
2023-04-19T04:16:32.104Z,90.58
2023-04-19T04:17:32.025Z,90.74
2023-04-19T04:18:31.917Z,90.06
2023-04-19T04:19:31.890Z,89.92
2023-04-19T04:20:31.843Z,90.23
2023-04-19T04:21:31.791Z,90.43
2023-04-19T04:22:31.750Z,89.41
2023-04-19T04:23:32.159Z,89.82
2023-04-19T04:24:31.666Z,89.31
2023-04-19T04:25:31.643Z,89.72
2023-04-19T04:26:32.065Z,89.41
2023-04-19T04:27:31.560Z,89.20
2023-04-19T04:28:31.514Z,89.20
2023-04-19T04:29:31.491Z,89.41
2023-04-19T04:30:31.445Z,89.72
2023-04-19T04:31:31.443Z,89.11
2023-04-19T04:32:31.366Z,88.79
2023-04-19T04:33:31.331Z,89.41
2023-04-19T04:34:31.291Z,89.11
2023-04-19T04:35:31.247Z,88.90
2023-04-19T04:36:31.241Z,88.18
2023-04-19T04:37:31.177Z,87.88
2023-04-19T04:38:31.121Z,87.16
2023-04-19T04:39:31.081Z,87.98
2023-04-19T04:40:31.055Z,87.37
2023-04-19T04:41:31.005Z,87.77
2023-04-19T04:42:30.970Z,87.47
2023-04-19T04:43:30.923Z,87.51
2023-04-19T04:44:30.908Z,87.16
2023-04-19T04:45:30.863Z,87.47
2023-04-19T04:46:30.800Z,87.10
2023-04-19T04:47:30.803Z,87.67
2023-04-19T04:48:30.721Z,87.37
2023-04-19T04:49:30.684Z,86.65
2023-04-19T04:50:30.671Z,87.30
2023-04-19T04:51:30.613Z,87.10
2023-04-19T04:52:30.556Z,87.00
2023-04-19T04:53:30.531Z,87.20
2023-04-19T04:54:30.522Z,86.65
2023-04-19T04:55:30.447Z,86.85
2023-04-19T04:56:30.424Z,86.69
2023-04-19T04:57:30.936Z,86.04
2023-04-19T04:58:30.317Z,85.57
2023-04-19T04:59:30.281Z,86.18
2023-04-19T05:00:30.239Z,85.57
2023-04-19T05:01:30.284Z,85.36
2023-04-19T05:02:30.203Z,85.88
2023-04-19T05:03:30.190Z,85.57
2023-04-19T05:04:30.135Z,85.42
2023-04-19T05:05:30.035Z,84.75
2023-04-19T05:06:29.991Z,85.12
2023-04-19T05:07:29.955Z,85.12
2023-04-19T05:08:30.279Z,85.32
2023-04-19T05:09:29.890Z,85.26
2023-04-19T05:10:29.849Z,85.02
2023-04-19T05:11:29.790Z,85.67
2023-04-19T05:12:29.753Z,85.26
2023-04-19T05:13:29.713Z,85.67
2023-04-19T05:14:29.663Z,85.57
2023-04-19T05:15:29.640Z,85.57
2023-04-19T05:16:29.613Z,84.34
2023-04-19T05:17:29.650Z,84.34
2023-04-19T05:18:29.502Z,83.73
2023-04-19T05:19:29.561Z,84.00
2023-04-19T05:20:29.452Z,83.59
2023-04-19T05:21:29.403Z,84.00
2023-04-19T05:22:29.351Z,83.42
2023-04-19T05:23:29.328Z,83.79
2023-04-19T05:24:29.274Z,84.03
2023-04-19T05:25:29.220Z,84.41
2023-04-19T05:26:29.186Z,83.59
2023-04-19T05:27:29.160Z,84.14
2023-04-19T05:28:29.115Z,83.38
2023-04-19T05:29:29.102Z,83.01
2023-04-19T05:30:29.019Z,83.01
2023-04-19T05:31:29.001Z,82.97
2023-04-19T05:32:28.990Z,83.18
2023-04-19T05:33:28.906Z,82.56
2023-04-19T05:34:28.864Z,81.88
2023-04-19T05:35:28.839Z,82.40
2023-04-19T05:36:28.783Z,81.74
2023-04-19T05:37:28.768Z,81.74
2023-04-19T05:38:28.713Z,81.65
2023-04-19T05:39:28.661Z,80.73
2023-04-19T05:40:28.615Z,80.42
2023-04-19T05:41:28.581Z,81.99
2023-04-19T05:42:28.533Z,80.11
2023-04-19T05:43:28.498Z,80.73
2023-04-19T05:44:28.467Z,80.11
2023-04-19T05:45:28.422Z,80.56
2023-04-19T05:46:28.412Z,79.25
2023-04-19T05:47:28.410Z,78.16
2023-04-19T05:48:28.294Z,75.74
2023-04-19T05:49:28.254Z,75.40
2023-04-19T05:50:28.213Z,73.84
2023-04-19T05:51:28.197Z,74.55
2023-04-19T05:52:28.136Z,72.78
2023-04-19T05:53:28.106Z,73.16
2023-04-19T05:54:28.131Z,71.60
2023-04-19T05:55:28.014Z,71.09
2023-04-19T05:56:27.981Z,70.75
2023-04-19T05:57:27.941Z,69.94
2023-04-19T05:58:27.953Z,69.91
2023-04-19T05:59:28.168Z,69.40
2023-04-19T06:00:27.844Z,69.30
2023-04-19T06:01:27.814Z,69.20
2023-04-19T06:02:27.833Z,68.12
2023-04-19T06:03:29.979Z,66.77
2023-04-19T06:04:27.807Z,67.14
2023-04-19T06:05:27.667Z,65.28
2023-04-19T06:06:27.961Z,65.92
2023-04-19T06:07:32.914Z,65.28
2023-04-19T06:08:27.511Z,64.58
2023-04-19T06:09:27.471Z,65.08
2023-04-19T06:10:36.729Z,64.00
2023-04-19T06:11:38.473Z,65.62
2023-04-19T06:12:27.367Z,65.04
2023-04-19T06:13:27.320Z,65.42
2023-04-19T06:14:27.290Z,65.79
2023-04-19T06:15:27.245Z,64.47
2023-04-19T06:16:27.225Z,64.04
2023-04-19T06:17:27.259Z,62.95
2023-04-19T06:18:27.142Z,63.32
2023-04-19T06:19:27.109Z,64.10
2023-04-19T06:20:27.058Z,64.58
2023-04-19T06:21:27.032Z,64.24
2023-04-19T06:22:27.002Z,64.37
2023-04-19T06:23:26.960Z,63.63
2023-04-19T06:24:26.924Z,63.93
2023-04-19T06:25:26.892Z,63.63
2023-04-19T06:26:26.856Z,62.84
2023-04-19T06:27:26.817Z,60.81
2023-04-19T06:28:26.775Z,61.62
2023-04-19T06:29:26.731Z,61.32
2023-04-19T06:30:26.699Z,61.88
2023-04-19T06:31:26.741Z,62.49
2023-04-19T06:32:26.682Z,61.95
2023-04-19T06:33:26.587Z,61.72
2023-04-19T06:34:26.547Z,61.21
2023-04-19T06:35:26.519Z,61.49
2023-04-19T06:36:26.496Z,60.48
2023-04-19T06:37:26.538Z,60.71
2023-04-19T06:38:26.426Z,61.32
2023-04-19T06:39:26.405Z,59.47
2023-04-19T06:40:26.337Z,60.38
2023-04-19T06:41:26.315Z,60.17
2023-04-19T06:42:26.262Z,60.65
2023-04-19T06:43:26.250Z,58.78
2023-04-19T06:44:26.191Z,59.08
2023-04-19T06:45:26.160Z,58.80
2023-04-19T06:46:26.229Z,58.67
2023-04-19T06:47:26.121Z,56.98
2023-04-19T06:48:26.052Z,56.70
2023-04-19T06:49:26.052Z,57.03
2023-04-19T06:50:25.978Z,57.54
2023-04-19T06:51:25.962Z,57.95
2023-04-19T06:52:25.910Z,60.93
2023-04-19T06:53:25.879Z,62.48
2023-04-19T06:54:25.843Z,64.39
2023-04-19T06:55:25.823Z,64.39
2023-04-19T06:56:25.771Z,64.42
2023-04-19T06:57:25.739Z,65.74
2023-04-19T06:58:25.737Z,65.74
2023-04-19T06:59:25.664Z,65.36
2023-04-19T07:00:25.634Z,67.05
2023-04-19T07:01:25.642Z,66.96
2023-04-19T07:02:25.679Z,67.36
2023-04-19T07:03:25.628Z,67.36
2023-04-19T07:04:25.628Z,67.66
2023-04-19T07:05:25.450Z,67.60
2023-04-19T07:06:25.434Z,67.43
2023-04-19T07:07:25.392Z,66.92
2023-04-19T07:08:29.822Z,66.65
2023-04-19T07:09:25.304Z,65.97
2023-04-19T07:10:25.269Z,65.47
2023-04-19T07:11:25.259Z,65.23
2023-04-19T07:12:25.206Z,64.22
2023-04-19T07:13:25.158Z,64.01
2023-04-19T07:14:25.112Z,64.73
2023-04-19T07:15:25.088Z,65.70
2023-04-19T07:16:25.114Z,65.94
2023-04-19T07:17:25.058Z,65.73
2023-04-19T07:18:24.984Z,66.24
2023-04-19T07:19:24.933Z,66.35
2023-04-19T07:20:24.890Z,66.88
2023-04-19T07:21:24.873Z,67.49
2023-04-19T07:22:24.822Z,67.08
2023-04-19T07:23:24.776Z,67.29
2023-04-19T07:24:24.740Z,66.99
2023-04-19T07:25:24.719Z,67.19
2023-04-19T07:26:24.666Z,66.85
2023-04-19T07:27:25.023Z,65.43
2023-04-19T07:28:24.588Z,66.04
2023-04-19T07:29:24.569Z,67.26
2023-04-19T07:30:24.521Z,66.85
2023-04-19T07:31:24.480Z,66.21
2023-04-19T07:32:24.486Z,65.97
2023-04-19T07:33:27.891Z,66.49
2023-04-19T07:34:24.363Z,66.00
2023-04-19T07:35:24.354Z,65.70
2023-04-19T07:36:24.290Z,65.67
2023-04-19T07:37:24.253Z,65.84
2023-04-19T07:38:24.221Z,64.97
2023-04-19T07:39:24.180Z,63.20
2023-04-19T07:40:24.138Z,61.24
2023-04-19T07:41:24.117Z,60.45
2023-04-19T07:42:24.077Z,59.11
2023-04-19T07:43:24.035Z,57.29
2023-04-19T07:44:23.997Z,56.98
2023-04-19T07:45:23.963Z,56.48
2023-04-19T07:46:23.957Z,56.30
2023-04-19T07:47:23.924Z,57.80
2023-04-19T07:48:24.510Z,57.22
2023-04-19T07:49:24.844Z,59.14
2023-04-19T07:50:23.777Z,59.22
2023-04-19T07:51:24.459Z,57.79
2023-04-19T07:52:23.726Z,57.49
2023-04-19T07:53:23.671Z,57.89
2023-04-19T07:54:23.652Z,56.07
2023-04-19T07:55:23.638Z,56.60
2023-04-19T07:56:23.571Z,53.34
2023-04-19T07:57:23.542Z,56.27
2023-04-19T07:58:23.508Z,55.74
2023-04-19T07:59:23.462Z,54.79
2023-04-19T08:00:23.437Z,54.46
2023-04-19T08:01:23.526Z,54.03
2023-04-19T08:02:23.635Z,52.94
2023-04-19T08:03:24.304Z,54.31
2023-04-19T08:04:23.807Z,54.74
2023-04-19T08:05:23.438Z,53.50
2023-04-19T08:06:23.228Z,53.67
2023-04-19T08:07:23.411Z,53.45
2023-04-19T08:08:23.174Z,51.93
2023-04-19T08:09:23.480Z,52.36
2023-04-19T08:10:23.093Z,52.94
2023-04-19T08:11:23.056Z,52.61
2023-04-19T08:12:34.459Z,54.18
2023-04-19T08:13:22.989Z,54.36
2023-04-19T08:14:34.756Z,54.63
2023-04-19T08:16:03.728Z,53.14
2023-04-19T08:16:56.257Z,53.55
2023-04-19T08:17:25.937Z,53.96
2023-04-19T08:18:22.885Z,55.16
2023-04-19T08:19:22.791Z,53.38
2023-04-19T08:20:22.764Z,53.96
2023-04-19T08:21:28.603Z,53.93
2023-04-19T08:22:22.696Z,51.89
2023-04-19T08:23:25.983Z,52.26
2023-04-19T08:24:22.645Z,52.97
2023-04-19T08:25:22.637Z,52.34
2023-04-19T08:26:22.574Z,51.45
2023-04-19T08:27:22.546Z,51.64
2023-04-19T08:28:22.509Z,50.95
2023-04-19T08:29:22.469Z,50.90
2023-04-19T08:30:22.439Z,50.62
2023-04-19T08:31:22.565Z,52.72
2023-04-19T08:32:22.432Z,52.34
2023-04-19T08:33:22.348Z,51.73
2023-04-19T08:34:22.328Z,51.61
2023-04-19T08:35:22.273Z,52.44
2023-04-19T08:36:28.735Z,51.65
2023-04-19T08:37:22.209Z,52.03
2023-04-19T08:38:22.182Z,51.35
2023-04-19T08:39:32.319Z,53.19
2023-04-19T08:40:22.128Z,52.11
2023-04-19T08:41:22.089Z,53.42
2023-04-19T08:42:33.243Z,52.48
2023-04-19T08:43:22.026Z,51.96
2023-04-19T08:44:32.599Z,53.63
2023-04-19T08:45:27.036Z,50.73
2023-04-19T08:46:21.937Z,50.73
2023-04-19T08:47:30.214Z,49.96
2023-04-19T08:48:21.864Z,49.58
2023-04-19T08:49:21.814Z,50.92
2023-04-19T08:50:32.112Z,50.21
2023-04-19T08:51:21.750Z,50.67
2023-04-19T08:52:21.732Z,51.60
2023-04-19T08:53:25.780Z,52.72
2023-04-19T08:54:21.663Z,51.86
2023-04-19T08:55:21.649Z,51.86
2023-04-19T08:56:34.581Z,51.83
2023-04-19T08:57:21.559Z,49.74
2023-04-19T08:58:30.694Z,48.45
2023-04-19T08:59:21.676Z,50.52
2023-04-19T09:00:21.490Z,51.03
2023-04-19T09:01:30.894Z,49.73
2023-04-19T09:02:21.481Z,51.81
2023-04-19T09:03:21.860Z,51.55
2023-04-19T09:04:34.693Z,50.74
2023-04-19T09:05:21.474Z,50.46
2023-04-19T09:06:21.555Z,50.74
2023-04-19T09:07:21.228Z,50.74
2023-04-19T09:08:21.204Z,51.32
2023-04-19T09:09:34.090Z,50.72
2023-04-19T09:10:21.205Z,50.82
2023-04-19T09:11:21.098Z,50.87
2023-04-19T09:12:21.064Z,51.40
2023-04-19T09:13:21.036Z,52.26
2023-04-19T09:14:21.158Z,49.93
2023-04-19T09:15:20.974Z,50.67
2023-04-19T09:16:20.975Z,50.41
2023-04-19T09:17:20.904Z,50.99
2023-04-19T09:18:20.871Z,51.86
2023-04-19T09:19:24.906Z,50.72
2023-04-19T09:20:20.861Z,48.85
2023-04-19T09:21:20.800Z,49.05
2023-04-19T09:22:20.757Z,50.39
2023-04-19T09:23:21.063Z,49.26
2023-04-19T09:24:20.694Z,48.39
2023-04-19T09:26:23.512Z,50.16
2023-04-19T09:27:20.576Z,51.12
2023-04-19T09:28:20.558Z,51.67
2023-04-19T09:29:20.546Z,52.31
2023-04-19T09:30:30.042Z,52.18
2023-04-19T09:31:39.040Z,52.06
2023-04-19T09:32:20.546Z,50.82
2023-04-19T09:33:20.481Z,50.92
2023-04-19T09:34:20.487Z,50.82
2023-04-19T09:35:20.317Z,50.21
2023-04-19T09:36:20.286Z,50.87
2023-04-19T09:37:34.948Z,49.17
2023-04-19T09:38:20.218Z,50.51
2023-04-19T09:39:20.228Z,50.21
2023-04-19T09:40:20.159Z,50.59
2023-04-19T09:41:20.119Z,50.59
2023-04-19T09:42:32.880Z,51.63
2023-04-19T09:43:49.741Z,50.24
2023-04-19T09:45:29.319Z,50.32
2023-04-19T09:46:19.986Z,49.91
2023-04-19T09:47:19.928Z,50.80
2023-04-19T09:48:19.891Z,49.24
2023-04-19T09:49:25.267Z,48.47
2023-04-19T09:50:25.249Z,50.64
2023-04-19T09:51:19.823Z,49.93
2023-04-19T09:52:19.761Z,50.04
2023-04-19T09:53:19.736Z,48.62
2023-04-19T09:54:19.711Z,48.39
2023-04-19T09:56:19.644Z,48.32
2023-04-19T09:57:19.598Z,48.87
2023-04-19T09:58:19.568Z,48.97
2023-04-19T09:59:21.371Z,49.35
2023-04-19T10:00:19.503Z,49.55
2023-04-19T10:01:19.582Z,49.93
2023-04-19T10:02:19.588Z,49.04
2023-04-19T10:03:19.473Z,50.34
2023-04-19T10:04:28.946Z,49.73
2023-04-19T10:05:21.281Z,48.59
2023-04-19T10:06:35.613Z,48.71
2023-04-19T10:08:19.253Z,50.01
2023-04-19T10:09:19.242Z,48.71
2023-04-19T10:10:21.520Z,48.90
2023-04-19T10:11:19.170Z,47.30
2023-04-19T10:13:21.414Z,47.78
2023-04-19T10:14:19.085Z,47.70
2023-04-19T10:15:19.020Z,47.75
2023-04-19T10:16:20.486Z,48.60
2023-04-19T10:17:19.057Z,46.20
2023-04-19T10:18:18.936Z,46.98
2023-04-19T10:19:18.891Z,46.56
2023-04-19T10:20:18.884Z,46.48
2023-04-19T10:21:18.840Z,44.64
2023-04-19T10:22:18.800Z,45.47
2023-04-19T10:23:18.833Z,46.52
2023-04-19T10:24:18.735Z,45.73
2023-04-19T10:25:18.694Z,44.54
2023-04-19T10:26:18.661Z,45.07
2023-04-19T10:27:18.636Z,45.17
2023-04-19T10:28:18.621Z,44.40
2023-04-19T10:29:18.568Z,45.79
2023-04-19T10:30:18.553Z,44.99
2023-04-19T10:31:18.525Z,45.39
2023-04-19T10:32:18.639Z,45.07
2023-04-19T10:33:18.437Z,45.94
2023-04-19T10:34:18.416Z,45.49
2023-04-19T10:35:18.404Z,44.34
2023-04-19T10:36:18.340Z,43.95
2023-04-19T10:37:18.305Z,44.23
2023-04-19T10:38:18.295Z,44.35
2023-04-19T10:39:18.240Z,44.17
2023-04-19T10:40:18.225Z,44.62
2023-04-19T10:41:18.798Z,45.43
2023-04-19T10:42:18.153Z,43.49
2023-04-19T10:43:18.126Z,44.07
2023-04-19T10:44:18.080Z,43.18
2023-04-19T10:45:18.051Z,41.89
2023-04-19T10:46:18.099Z,43.10
2023-04-19T10:47:18.008Z,44.01
2023-04-19T10:48:17.953Z,43.89
2023-04-19T10:49:18.029Z,43.97
2023-04-19T10:50:17.887Z,43.29
2023-04-19T10:51:17.849Z,44.56
2023-04-19T10:52:17.838Z,43.12
2023-04-19T10:53:17.787Z,42.09
2023-04-19T10:54:17.755Z,43.40
2023-04-19T10:55:17.724Z,42.03
2023-04-19T10:56:17.696Z,42.86
2023-04-19T10:57:17.710Z,43.12
2023-04-19T10:58:17.649Z,45.53
2023-04-19T10:59:17.815Z,43.16
2023-04-19T11:00:17.573Z,43.14
2023-04-19T11:01:17.641Z,42.84
2023-04-19T11:02:17.584Z,43.55
2023-04-19T11:03:17.582Z,42.54
2023-04-19T11:04:17.650Z,43.14
2023-04-19T11:05:18.462Z,43.67
2023-04-19T11:06:17.373Z,44.88
2023-04-19T11:07:17.338Z,44.49
2023-04-19T11:08:17.310Z,44.70
2023-04-19T11:09:17.420Z,43.73
2023-04-19T11:10:17.257Z,46.04
2023-04-19T11:11:17.256Z,45.29
2023-04-19T11:12:17.248Z,44.56
2023-04-19T11:13:17.238Z,43.29
2023-04-19T11:14:17.119Z,45.41
2023-04-19T11:15:17.082Z,43.79
2023-04-19T11:16:19.302Z,43.67
2023-04-19T11:17:17.017Z,44.17
2023-04-19T11:18:17.059Z,44.27
2023-04-19T11:19:17.287Z,44.72
2023-04-19T11:20:16.929Z,44.03
2023-04-19T11:21:16.889Z,45.04
2023-04-19T11:22:16.885Z,44.56
2023-04-19T11:23:16.828Z,45.55
2023-04-19T11:24:16.811Z,43.69
2023-04-19T11:25:16.782Z,45.10
2023-04-19T11:26:16.735Z,44.88
2023-04-19T11:27:16.707Z,42.17
2023-04-19T11:28:16.667Z,43.52
2023-04-19T11:29:17.208Z,43.20
2023-04-19T11:30:16.623Z,44.95
2023-04-19T11:31:16.595Z,44.60
2023-04-19T11:32:16.546Z,43.85
2023-04-19T11:33:16.504Z,43.67
2023-04-19T11:34:16.741Z,43.57
2023-04-19T11:35:16.446Z,46.00
2023-04-19T11:36:16.420Z,44.46
2023-04-19T11:37:16.402Z,43.81
2023-04-19T11:38:16.345Z,42.19
2023-04-19T11:39:16.351Z,43.71
2023-04-19T11:40:16.302Z,42.13
2023-04-19T11:41:16.250Z,44.06
2023-04-19T11:42:16.211Z,42.94
2023-04-19T11:43:16.386Z,43.73
2023-04-19T11:44:16.442Z,42.52
2023-04-19T11:45:28.287Z,43.73
2023-04-19T11:46:16.107Z,43.61
2023-04-19T11:47:16.051Z,42.11
2023-04-19T11:48:16.123Z,43.29
2023-04-19T11:49:15.981Z,41.95
2023-04-19T11:50:15.976Z,42.25
2023-04-19T11:51:15.918Z,41.89
2023-04-19T11:52:15.900Z,41.00
2023-04-19T11:53:15.865Z,41.22
2023-04-19T11:54:15.997Z,41.22
2023-04-19T11:55:15.788Z,41.30
2023-04-19T11:56:15.758Z,40.43
2023-04-19T11:57:15.755Z,41.85
2023-04-19T11:58:15.713Z,40.73
2023-04-19T11:59:15.861Z,41.85
2023-04-19T12:00:15.621Z,41.97
2023-04-19T12:01:15.623Z,42.47
2023-04-19T12:02:15.585Z,43.06
2023-04-19T12:03:15.772Z,41.83
2023-04-19T12:04:15.985Z,42.41
2023-04-19T12:05:15.574Z,41.69
2023-04-19T12:06:15.440Z,42.17
2023-04-19T12:07:15.412Z,42.31
2023-04-19T12:08:15.366Z,42.03
2023-04-19T12:09:15.331Z,43.14
2023-04-19T12:10:15.313Z,42.52
2023-04-19T12:11:15.271Z,42.52
2023-04-19T12:12:15.237Z,42.29
2023-04-19T12:13:15.223Z,42.49
2023-04-19T12:14:15.614Z,43.73
2023-04-19T12:15:15.186Z,43.61
2023-04-19T12:16:15.216Z,42.11
2023-04-19T12:17:15.081Z,43.23
2023-04-19T12:18:15.087Z,42.11
2023-04-19T12:19:15.126Z,42.63
2023-04-19T12:20:14.982Z,42.54
2023-04-19T12:21:14.951Z,41.54
2023-04-19T12:22:14.938Z,43.59
2023-04-19T12:23:14.883Z,43.08
2023-04-19T12:24:14.860Z,43.59
2023-04-19T12:25:14.817Z,43.89
2023-04-19T12:26:14.778Z,42.98
2023-04-19T12:27:14.752Z,44.10
2023-04-19T12:28:14.712Z,41.95
2023-04-19T12:29:14.966Z,42.47
2023-04-19T12:30:14.650Z,41.97
2023-04-19T12:31:14.643Z,42.09
2023-04-19T12:32:14.679Z,42.49
2023-04-19T12:33:14.606Z,43.43
2023-04-19T12:34:14.516Z,43.12
2023-04-19T12:35:14.501Z,43.41
2023-04-19T12:36:14.449Z,43.81
2023-04-19T12:37:14.418Z,43.49
2023-04-19T12:38:14.384Z,42.57
2023-04-19T12:39:14.404Z,43.49
2023-04-19T12:40:14.318Z,42.19
2023-04-19T12:41:14.313Z,42.51
2023-04-19T12:42:14.293Z,43.43
2023-04-19T12:43:14.221Z,43.84
2023-04-19T12:44:14.350Z,43.30
2023-04-19T12:45:14.162Z,43.51
2023-04-19T12:46:14.333Z,42.29
2023-04-19T12:47:14.195Z,42.69
2023-04-19T12:48:14.042Z,43.43
2023-04-19T12:49:14.400Z,43.53
2023-04-19T12:50:13.965Z,43.91
2023-04-19T12:51:13.952Z,44.20
2023-04-19T12:52:13.897Z,43.61
2023-04-19T12:53:13.863Z,44.32
2023-04-19T12:54:13.848Z,44.01
2023-04-19T12:55:13.787Z,43.91
2023-04-19T12:56:13.752Z,43.79
2023-04-19T12:57:13.729Z,43.81